createdAt,value
2022-10-23T00:01:38.106Z,9.42
2022-10-23T00:04:09.695Z,9.40
2022-10-23T00:06:41.163Z,9.43
2022-10-23T00:09:10.878Z,9.47
2022-10-23T00:11:38.083Z,9.50
2022-10-23T00:14:07.505Z,9.51
2022-10-23T00:16:35.559Z,9.58
2022-10-23T00:19:03.204Z,9.57
2022-10-23T00:21:30.522Z,9.56
2022-10-23T00:24:00.321Z,9.52
2022-10-23T00:26:27.816Z,9.46
2022-10-23T00:28:56.105Z,9.43
2022-10-23T00:31:25.041Z,9.44
2022-10-23T00:33:53.109Z,9.41
2022-10-23T00:36:21.484Z,9.34
2022-10-23T00:38:50.382Z,9.35
2022-10-23T00:41:21.387Z,9.33
2022-10-23T00:44:03.283Z,9.30
2022-10-23T00:46:31.574Z,9.26
2022-10-23T00:49:00.142Z,9.25
2022-10-23T00:51:32.499Z,9.25
2022-10-23T00:54:23.051Z,9.24
2022-10-23T00:56:50.385Z,9.22
2022-10-23T00:59:17.923Z,9.19
2022-10-23T01:01:45.898Z,9.20
2022-10-23T01:04:13.062Z,9.18
2022-10-23T01:06:45.427Z,9.14
2022-10-23T01:09:19.337Z,9.16
2022-10-23T01:11:53.414Z,9.15
2022-10-23T01:14:27.678Z,9.14
2022-10-23T01:17:04.756Z,9.10
2022-10-23T01:19:45.150Z,9.04
2022-10-23T01:22:29.024Z,8.96
2022-10-23T01:25:00.984Z,8.90
2022-10-23T01:27:35.437Z,8.91
2022-10-23T01:30:06.117Z,8.86
2022-10-23T01:32:40.460Z,8.78
2022-10-23T01:35:14.412Z,8.74
2022-10-23T01:37:44.499Z,8.75
2022-10-23T01:40:19.476Z,8.72
2022-10-23T01:42:53.247Z,8.70
2022-10-23T01:45:26.850Z,8.72
2022-10-23T01:47:56.017Z,8.75
2022-10-23T01:50:25.766Z,8.78
2022-10-23T01:52:52.948Z,8.76
2022-10-23T01:55:21.535Z,8.76
2022-10-23T01:57:51.186Z,8.76
2022-10-23T02:00:20.345Z,8.73
2022-10-23T02:02:50.718Z,8.75
2022-10-23T02:05:21.483Z,8.75
2022-10-23T02:07:49.593Z,8.69
2022-10-23T02:10:18.094Z,8.68
2022-10-23T02:12:57.489Z,8.65
2022-10-23T02:15:30.749Z,8.59
2022-10-23T02:18:07.147Z,8.56
2022-10-23T02:20:38.328Z,8.53
2022-10-23T02:23:15.565Z,8.49
2022-10-23T02:25:50.627Z,8.49
2022-10-23T02:28:25.882Z,8.45
2022-10-23T02:30:55.397Z,8.40
2022-10-23T02:33:23.790Z,8.37
2022-10-23T02:35:50.872Z,8.36
2022-10-23T02:38:31.508Z,8.34
2022-10-23T02:41:08.871Z,8.33
2022-10-23T02:43:46.652Z,8.30
2022-10-23T02:46:22.667Z,8.31
2022-10-23T02:49:00.303Z,8.35
2022-10-23T02:51:34.257Z,8.29
2022-10-23T02:54:07.799Z,8.24
2022-10-23T02:56:44.065Z,8.23
2022-10-23T02:59:21.660Z,8.20
2022-10-23T03:01:52.853Z,8.19
2022-10-23T03:04:23.212Z,8.14
2022-10-23T03:06:52.322Z,8.14
2022-10-23T03:09:19.812Z,8.11
2022-10-23T03:11:46.881Z,8.08
2022-10-23T03:14:15.459Z,8.07
2022-10-23T03:16:42.719Z,8.02
2022-10-23T03:19:09.858Z,8.02
2022-10-23T03:21:37.347Z,8.00
2022-10-23T03:24:04.821Z,8.00
2022-10-23T03:26:31.856Z,7.99
2022-10-23T03:28:58.995Z,7.97
2022-10-23T03:31:27.585Z,7.97
2022-10-23T03:33:55.062Z,7.95
2022-10-23T03:36:22.053Z,7.87
2022-10-23T03:38:49.323Z,7.81
2022-10-23T03:41:16.338Z,7.78
2022-10-23T03:43:43.696Z,7.73
2022-10-23T03:46:11.053Z,7.73
2022-10-23T03:48:39.975Z,7.69
2022-10-23T03:51:07.422Z,7.63
2022-10-23T03:53:34.600Z,7.54
2022-10-23T03:56:02.217Z,7.45
2022-10-23T03:58:29.319Z,7.40
2022-10-23T04:00:56.301Z,7.42
2022-10-23T04:03:23.840Z,7.35
2022-10-23T04:05:52.570Z,7.32
2022-10-23T04:08:20.221Z,7.33
2022-10-23T04:10:47.620Z,7.27
2022-10-23T04:13:14.780Z,7.23
2022-10-23T04:15:47.639Z,7.16
2022-10-23T04:18:14.780Z,7.11
2022-10-23T04:20:41.879Z,7.09
2022-10-23T04:23:10.621Z,7.06
2022-10-23T04:25:37.660Z,7.07
2022-10-23T04:28:05.015Z,7.08
2022-10-23T04:30:32.253Z,6.98
2022-10-23T04:32:59.217Z,6.91
2022-10-23T04:35:26.267Z,6.91
2022-10-23T04:37:53.563Z,6.92
2022-10-23T04:40:22.422Z,6.89
2022-10-23T04:42:49.459Z,6.84
2022-10-23T04:45:16.784Z,6.76
2022-10-23T04:47:44.081Z,6.77
2022-10-23T04:50:11.102Z,6.72
2022-10-23T04:52:38.237Z,6.67
2022-10-23T04:55:08.765Z,6.60
2022-10-23T04:57:38.111Z,6.55
2022-10-23T05:00:08.168Z,6.54
2022-10-23T05:02:36.312Z,6.53
2022-10-23T05:05:04.510Z,6.49
2022-10-23T05:07:32.028Z,6.49
2022-10-23T05:09:59.540Z,6.51
2022-10-23T05:12:27.727Z,6.49
2022-10-23T05:14:56.960Z,6.54
2022-10-23T05:17:30.460Z,6.51
2022-10-23T05:20:02.429Z,6.55
2022-10-23T05:22:36.362Z,6.58
2022-10-23T05:25:05.835Z,6.61
2022-10-23T05:27:33.943Z,6.60
2022-10-23T05:30:03.065Z,6.63
2022-10-23T05:32:32.509Z,6.63
2022-10-23T05:35:03.245Z,6.65
2022-10-23T05:37:32.670Z,6.64
2022-10-23T05:40:00.507Z,6.57
2022-10-23T05:42:28.029Z,6.58
2022-10-23T05:44:55.860Z,6.59
2022-10-23T05:47:24.988Z,6.62
2022-10-23T05:49:52.367Z,6.65
2022-10-23T05:52:19.684Z,6.63
2022-10-23T05:54:47.509Z,6.63
2022-10-23T05:57:15.221Z,6.62
2022-10-23T05:59:42.558Z,6.62
2022-10-23T06:02:10.267Z,6.67
2022-10-23T06:04:39.804Z,6.71
2022-10-23T06:07:06.758Z,6.71
2022-10-23T06:09:34.589Z,6.72
2022-10-23T06:12:02.413Z,6.67
2022-10-23T06:14:30.075Z,6.61
2022-10-23T06:16:57.472Z,6.60
2022-10-23T06:19:24.649Z,6.61
2022-10-23T06:21:53.782Z,6.55
2022-10-23T06:24:21.314Z,6.58
2022-10-23T06:26:48.559Z,6.61
2022-10-23T06:29:15.692Z,6.56
2022-10-23T06:31:42.881Z,6.58
2022-10-23T06:34:12.347Z,6.62
2022-10-23T06:36:40.160Z,6.61
2022-10-23T06:39:10.255Z,6.67
2022-10-23T06:41:38.106Z,6.70
2022-10-23T06:44:06.286Z,6.76
2022-10-23T06:46:36.365Z,6.79
2022-10-23T06:49:04.483Z,6.86
2022-10-23T06:51:31.987Z,6.90
2022-10-23T06:53:59.505Z,6.90
2022-10-23T06:56:28.711Z,6.92
2022-10-23T06:58:56.508Z,6.99
2022-10-23T07:01:24.069Z,7.00
2022-10-23T07:03:51.596Z,7.03
2022-10-23T07:06:18.983Z,7.05
2022-10-23T07:08:46.235Z,7.01
2022-10-23T07:11:14.085Z,6.99
2022-10-23T07:13:42.689Z,7.04
2022-10-23T07:16:12.965Z,7.11
2022-10-23T07:18:42.725Z,7.13
2022-10-23T07:21:10.240Z,7.15
2022-10-23T07:23:38.089Z,7.23
2022-10-23T07:26:08.195Z,7.30
2022-10-23T07:28:36.625Z,7.33
2022-10-23T07:31:06.717Z,7.40
2022-10-23T07:33:33.991Z,7.44
2022-10-23T07:36:03.666Z,7.55
2022-10-23T07:38:31.505Z,7.59
2022-10-23T07:40:59.691Z,7.60
2022-10-23T07:43:27.264Z,7.71
2022-10-23T07:45:54.798Z,7.78
2022-10-23T07:48:23.796Z,7.85
2022-10-23T07:50:52.044Z,7.87
2022-10-23T07:53:22.137Z,7.96
2022-10-23T07:55:54.050Z,8.03
2022-10-23T07:58:21.486Z,8.12
2022-10-23T08:00:55.277Z,8.17
2022-10-23T08:03:25.220Z,8.23
2022-10-23T08:05:53.942Z,8.29
2022-10-23T08:08:21.922Z,8.34
2022-10-23T08:10:50.762Z,8.41
2022-10-23T08:13:18.561Z,8.47
2022-10-23T08:15:47.210Z,8.56
2022-10-23T08:18:15.084Z,8.65
2022-10-23T08:20:46.121Z,8.68
2022-10-23T08:23:16.370Z,8.75
2022-10-23T08:25:43.766Z,8.78
2022-10-23T08:28:11.441Z,8.83
2022-10-23T08:30:38.832Z,8.85
2022-10-23T08:33:07.379Z,8.91
2022-10-23T08:35:37.173Z,8.92
2022-10-23T08:38:07.051Z,9.01
2022-10-23T08:40:36.046Z,9.01
2022-10-23T08:43:07.235Z,9.09
2022-10-23T08:45:40.676Z,9.16
2022-10-23T08:48:22.885Z,9.23
2022-10-23T08:50:54.653Z,9.28
2022-10-23T08:53:33.294Z,9.36
2022-10-23T08:56:03.926Z,9.42
2022-10-23T08:58:45.954Z,9.48
2022-10-23T09:01:31.533Z,9.60
2022-10-23T09:03:59.542Z,9.68
2022-10-23T09:06:35.353Z,9.75
2022-10-23T09:09:16.034Z,9.75
2022-10-23T09:11:50.542Z,9.81
2022-10-23T09:14:34.085Z,9.85
2022-10-23T09:19:46.638Z,9.91
2022-10-23T09:22:14.567Z,9.92
2022-10-23T09:24:44.347Z,9.98
2022-10-23T09:27:16.687Z,9.96
2022-10-23T09:29:49.462Z,10.02
2022-10-23T09:32:16.552Z,10.03
2022-10-23T09:34:52.302Z,10.06
2022-10-23T09:37:22.497Z,10.10
2022-10-23T09:40:03.706Z,10.18
2022-10-23T09:42:31.212Z,10.18
2022-10-23T09:44:58.752Z,10.24
2022-10-23T09:47:26.231Z,10.28
2022-10-23T09:49:55.375Z,10.29
2022-10-23T09:52:29.136Z,10.32
2022-10-23T09:55:00.857Z,10.37
2022-10-23T09:57:32.311Z,10.36
2022-10-23T10:00:03.538Z,10.44
2022-10-23T10:02:33.006Z,10.48
2022-10-23T10:05:11.548Z,10.52
2022-10-23T10:07:38.778Z,10.57
2022-10-23T10:10:16.079Z,10.65
2022-10-23T10:12:50.386Z,10.67
2022-10-23T10:15:24.681Z,10.70
2022-10-23T10:18:02.404Z,10.72
2022-10-23T10:20:45.285Z,10.82
2022-10-23T10:23:23.194Z,10.86
2022-10-23T10:26:03.386Z,10.89
2022-10-23T10:29:03.213Z,10.93
2022-10-23T10:31:42.301Z,10.97
2022-10-23T10:34:17.773Z,11.00
2022-10-23T10:36:51.296Z,11.07
2022-10-23T10:39:42.017Z,11.24
2022-10-23T10:42:24.554Z,11.29
2022-10-23T10:45:08.056Z,11.30
2022-10-23T10:47:45.439Z,11.34
2022-10-23T10:50:21.289Z,11.42
2022-10-23T10:52:53.383Z,11.45
2022-10-23T10:55:27.197Z,11.55
2022-10-23T10:58:01.900Z,11.62
2022-10-23T11:00:31.282Z,11.68
2022-10-23T11:03:04.187Z,11.81
2022-10-23T11:05:33.099Z,11.91
2022-10-23T11:08:05.653Z,12.00
2022-10-23T11:10:34.732Z,12.03
2022-10-23T11:13:04.499Z,12.05
2022-10-23T11:15:41.356Z,12.13
2022-10-23T11:18:17.654Z,12.24
2022-10-23T11:21:00.017Z,12.32
2022-10-23T11:26:51.048Z,12.51
2022-10-23T11:29:46.730Z,12.63
2022-10-23T11:32:41.477Z,12.70
2022-10-23T11:35:25.911Z,12.79
2022-10-23T11:38:02.074Z,12.89
2022-10-23T11:40:29.952Z,12.96
2022-10-23T11:42:58.182Z,13.05
2022-10-23T11:45:33.284Z,13.08
2022-10-23T11:48:02.698Z,13.08
2022-10-23T11:50:49.487Z,13.14
2022-10-23T11:53:28.491Z,13.22
2022-10-23T11:56:02.190Z,13.26
2022-10-23T11:58:44.771Z,13.33
2022-10-23T12:01:36.945Z,13.37
2022-10-23T12:04:16.855Z,13.36
2022-10-23T12:06:47.321Z,13.38
2022-10-23T12:09:32.626Z,13.46
2022-10-23T12:12:14.951Z,13.54
2022-10-23T12:14:44.640Z,13.65
2022-10-23T12:17:35.976Z,13.72
2022-10-23T12:20:19.481Z,13.78
2022-10-23T12:22:59.763Z,13.84
2022-10-23T12:25:38.062Z,13.93
2022-10-23T12:28:14.461Z,13.94
2022-10-23T12:30:48.308Z,14.01
2022-10-23T12:33:28.739Z,14.09
2022-10-23T12:36:28.696Z,14.13
2022-10-23T12:38:56.125Z,14.19
2022-10-23T12:41:26.843Z,14.25
2022-10-23T12:43:57.259Z,14.28
2022-10-23T12:46:33.442Z,14.36
2022-10-23T12:49:13.467Z,14.38
2022-10-23T12:51:42.396Z,14.39
2022-10-23T12:54:17.702Z,14.44
2022-10-23T12:56:46.043Z,14.48
2022-10-23T12:59:16.743Z,14.55
2022-10-23T13:01:46.988Z,14.58
2022-10-23T13:04:26.464Z,14.62
2022-10-23T13:06:56.138Z,14.67
2022-10-23T13:09:28.578Z,14.68
2022-10-23T13:11:58.230Z,14.72
2022-10-23T13:14:39.366Z,14.67
2022-10-23T13:17:12.976Z,14.70
2022-10-23T13:19:42.268Z,14.73
2022-10-23T13:22:19.292Z,14.77
2022-10-23T13:24:47.330Z,14.80
2022-10-23T13:27:26.302Z,14.87
2022-10-23T13:29:54.301Z,14.91
2022-10-23T13:32:24.761Z,14.89
2022-10-23T13:35:04.019Z,14.91
2022-10-23T13:37:32.397Z,14.96
2022-10-23T13:40:00.850Z,14.94
2022-10-23T13:42:28.850Z,14.96
2022-10-23T13:44:57.281Z,14.99
2022-10-23T13:47:25.099Z,15.04
2022-10-23T13:49:54.072Z,15.12
2022-10-23T13:52:23.256Z,15.19
2022-10-23T13:54:50.447Z,15.28
2022-10-23T13:57:17.662Z,15.36
2022-10-23T13:59:44.775Z,15.38
2022-10-23T14:02:20.865Z,15.43
2022-10-23T14:04:48.882Z,15.48
2022-10-23T14:07:18.906Z,15.47
2022-10-23T14:09:47.472Z,15.46
2022-10-23T14:12:16.005Z,15.44
2022-10-23T14:14:43.699Z,15.49
2022-10-23T14:17:11.419Z,15.49
2022-10-23T14:19:39.280Z,15.52
2022-10-23T14:22:07.221Z,15.53
2022-10-23T14:24:36.326Z,15.48
2022-10-23T14:27:04.450Z,15.48
2022-10-23T14:29:32.047Z,15.46
2022-10-23T14:32:00.216Z,15.48
2022-10-23T14:34:27.721Z,15.49
2022-10-23T14:37:08.195Z,15.53
2022-10-23T14:39:38.140Z,15.52
2022-10-23T14:42:06.247Z,15.52
2022-10-23T14:44:34.166Z,15.54
2022-10-23T14:47:02.237Z,15.54
2022-10-23T14:49:29.740Z,15.53
2022-10-23T14:51:57.909Z,15.51
2022-10-23T14:54:25.757Z,15.48
2022-10-23T14:56:56.046Z,15.46
2022-10-23T14:59:24.736Z,15.42
2022-10-23T15:04:25.140Z,15.37
2022-10-23T15:06:53.751Z,15.36
2022-10-23T15:09:22.875Z,15.30
2022-10-23T15:11:51.327Z,15.29
2022-10-23T15:14:21.283Z,15.25
2022-10-23T15:16:49.463Z,15.22
2022-10-23T15:19:18.846Z,15.13
2022-10-23T15:21:48.385Z,15.08
2022-10-23T15:24:16.842Z,15.00
2022-10-23T15:26:47.045Z,14.94
2022-10-23T15:29:16.190Z,14.87
2022-10-23T15:31:50.609Z,14.85
2022-10-23T15:34:22.124Z,14.78
2022-10-23T15:36:50.187Z,14.70
2022-10-23T15:39:20.192Z,14.61
2022-10-23T15:41:50.448Z,14.53
2022-10-23T15:44:21.763Z,14.45
2022-10-23T15:46:53.589Z,14.42
2022-10-23T15:49:21.597Z,14.35
2022-10-23T15:51:50.767Z,14.25
2022-10-23T15:54:19.890Z,14.16
2022-10-23T15:56:51.678Z,14.07
2022-10-23T15:59:22.205Z,14.00
2022-10-23T16:01:53.983Z,13.89
2022-10-23T16:04:22.322Z,13.85
2022-10-23T16:06:51.100Z,13.79
2022-10-23T16:09:18.897Z,13.71
2022-10-23T16:11:46.306Z,13.62
2022-10-23T16:14:16.623Z,13.55
2022-10-23T16:16:45.175Z,13.50
2022-10-23T16:19:15.343Z,13.46
2022-10-23T16:21:44.167Z,13.41
2022-10-23T16:24:11.867Z,13.34
2022-10-23T16:26:39.936Z,13.28
2022-10-23T16:29:10.290Z,13.20
2022-10-23T16:31:38.741Z,13.10
2022-10-23T16:34:06.617Z,13.03
2022-10-23T16:36:38.101Z,13.00
2022-10-23T16:39:07.084Z,12.93
2022-10-23T16:41:38.893Z,12.88
2022-10-23T16:44:07.631Z,12.81
2022-10-23T16:46:35.181Z,12.77
2022-10-23T16:49:05.001Z,12.71
2022-10-23T16:51:36.186Z,12.71
2022-10-23T16:54:06.481Z,12.68
2022-10-23T16:56:34.553Z,12.62
2022-10-23T16:59:03.410Z,12.56
2022-10-23T17:01:34.231Z,12.52
2022-10-23T17:04:04.318Z,12.43
2022-10-23T17:06:36.992Z,12.36
2022-10-23T17:09:07.561Z,12.31
2022-10-23T17:11:40.520Z,12.27
2022-10-23T17:14:25.321Z,12.21
2022-10-23T17:16:54.384Z,12.16
2022-10-23T17:19:43.731Z,12.14
2022-10-23T17:22:16.967Z,12.09
2022-10-23T17:24:48.770Z,12.05
2022-10-23T17:27:23.462Z,12.06
2022-10-23T17:30:08.146Z,12.03
2022-10-23T17:32:42.740Z,11.96
2022-10-23T17:35:16.413Z,11.89
2022-10-23T17:37:49.148Z,11.82
2022-10-23T17:40:25.066Z,11.78
2022-10-23T17:42:55.646Z,11.73
2022-10-23T17:45:26.452Z,11.71
2022-10-23T17:47:56.511Z,11.68
2022-10-23T17:50:27.169Z,11.66
2022-10-23T17:53:14.008Z,11.63
2022-10-23T17:55:58.552Z,11.58
2022-10-23T17:58:34.096Z,11.56
2022-10-23T18:01:12.677Z,11.54
2022-10-23T18:03:46.277Z,11.53
2022-10-23T18:06:27.382Z,11.53
2022-10-23T18:09:04.216Z,11.48
2022-10-23T18:11:35.216Z,11.43
2022-10-23T18:14:05.447Z,11.39
2022-10-23T18:16:34.469Z,11.32
2022-10-23T18:19:03.111Z,11.35
2022-10-23T18:21:35.376Z,11.27
2022-10-23T18:24:09.972Z,11.25
2022-10-23T18:26:39.711Z,11.23
2022-10-23T18:29:09.037Z,11.18
2022-10-23T18:31:39.219Z,11.14
2022-10-23T18:34:17.589Z,11.11
2022-10-23T18:36:47.268Z,11.09
2022-10-23T18:39:19.975Z,11.08
2022-10-23T18:41:47.699Z,11.05
2022-10-23T18:44:18.547Z,11.03
2022-10-23T18:46:49.202Z,11.02
2022-10-23T18:49:19.288Z,11.02
2022-10-23T18:51:53.614Z,10.98
2022-10-23T18:54:24.038Z,10.95
2022-10-23T18:56:52.568Z,10.93
2022-10-23T18:59:23.664Z,10.89
2022-10-23T19:01:54.393Z,10.84
2022-10-23T19:04:27.209Z,10.84
2022-10-23T19:06:56.329Z,10.80
2022-10-23T19:09:27.131Z,10.73
2022-10-23T19:11:56.764Z,10.73
2022-10-23T19:14:26.106Z,10.74
2022-10-23T19:17:00.028Z,10.76
2022-10-23T19:19:32.782Z,10.75
2022-10-23T19:22:05.107Z,10.73
2022-10-23T19:24:41.033Z,10.71
2022-10-23T19:27:11.713Z,10.69
2022-10-23T19:29:45.906Z,10.70
2022-10-23T19:32:16.199Z,10.65
2022-10-23T19:34:45.529Z,10.63
2022-10-23T19:37:15.089Z,10.62
2022-10-23T19:39:46.136Z,10.59
2022-10-23T19:42:14.228Z,10.59
2022-10-23T19:44:43.767Z,10.56
2022-10-23T19:47:15.464Z,10.51
2022-10-23T19:49:43.630Z,10.46
2022-10-23T19:52:12.514Z,10.41
2022-10-23T19:54:41.909Z,10.41
2022-10-23T19:57:13.102Z,10.35
2022-10-23T19:59:41.790Z,10.33
2022-10-23T20:02:20.179Z,10.31
2022-10-23T20:04:48.617Z,10.32
2022-10-23T20:07:22.219Z,10.33
2022-10-23T20:09:52.673Z,10.28
2022-10-23T20:12:27.085Z,10.28
2022-10-23T20:14:55.871Z,10.25
2022-10-23T20:17:24.368Z,10.29
2022-10-23T20:19:54.492Z,10.27
2022-10-23T20:22:25.995Z,10.28
2022-10-23T20:24:54.247Z,10.30
2022-10-23T20:27:26.316Z,10.31
2022-10-23T20:29:54.868Z,10.33
2022-10-23T20:32:23.599Z,10.35
2022-10-23T20:34:55.060Z,10.32
2022-10-23T20:37:25.050Z,10.29
2022-10-23T20:39:55.182Z,10.26
2022-10-23T20:42:26.239Z,10.21
2022-10-23T20:44:54.596Z,10.18
2022-10-23T20:47:22.677Z,10.17
2022-10-23T20:49:50.573Z,10.16
2022-10-23T20:52:18.435Z,10.13
2022-10-23T20:54:45.741Z,10.14
2022-10-23T20:57:15.787Z,10.14
2022-10-23T20:59:48.211Z,10.13
2022-10-23T21:02:16.730Z,10.11
2022-10-23T21:04:44.821Z,10.10
2022-10-23T21:07:12.203Z,10.10
2022-10-23T21:09:39.772Z,10.11
2022-10-23T21:12:07.879Z,10.11
2022-10-23T21:14:35.665Z,10.13
2022-10-23T21:17:04.596Z,10.13
2022-10-23T21:19:32.089Z,10.11
2022-10-23T21:21:59.071Z,10.06
2022-10-23T21:24:26.113Z,9.97
2022-10-23T21:26:53.412Z,9.97
2022-10-23T21:29:21.031Z,9.95
2022-10-23T21:31:52.519Z,9.97
2022-10-23T21:34:21.235Z,9.98
2022-10-23T21:37:11.230Z,10.00
2022-10-23T21:39:36.171Z,10.02
2022-10-23T21:42:03.209Z,10.04
2022-10-23T21:44:30.237Z,10.04
2022-10-23T21:46:58.093Z,10.10
2022-10-23T21:49:27.859Z,10.06
2022-10-23T21:51:55.704Z,10.07
2022-10-23T21:54:24.191Z,10.06
2022-10-23T21:56:52.878Z,10.12
2022-10-23T21:59:21.689Z,10.16
2022-10-23T22:01:49.710Z,10.21
2022-10-23T22:04:18.615Z,10.25
2022-10-23T22:06:49.082Z,10.25
2022-10-23T22:09:20.314Z,10.26
2022-10-23T22:11:49.013Z,10.27
2022-10-23T22:14:16.730Z,10.32
2022-10-23T22:16:43.967Z,10.34
2022-10-23T22:19:13.437Z,10.35
2022-10-23T22:21:41.301Z,10.36
2022-10-23T22:24:10.163Z,10.35
2022-10-23T22:26:39.366Z,10.35
2022-10-23T22:29:10.478Z,10.36
2022-10-23T22:31:39.515Z,10.42
2022-10-23T22:34:20.153Z,10.47
2022-10-23T22:36:56.892Z,10.45
2022-10-23T22:39:25.847Z,10.39
2022-10-23T22:41:54.275Z,10.39
2022-10-23T22:44:21.602Z,10.36
2022-10-23T22:46:48.715Z,10.38
2022-10-23T22:49:15.995Z,10.36
2022-10-23T22:51:43.750Z,10.35
2022-10-23T22:54:11.680Z,10.35
2022-10-23T22:56:40.238Z,10.29
2022-10-23T22:59:07.523Z,10.26
2022-10-23T23:01:37.920Z,10.20
2022-10-23T23:04:13.906Z,10.16
2022-10-23T23:06:52.545Z,10.07
2022-10-23T23:09:19.834Z,9.98
2022-10-23T23:11:52.751Z,9.92
2022-10-23T23:14:23.581Z,9.87
2022-10-23T23:16:53.017Z,9.88
2022-10-23T23:19:20.883Z,9.87
2022-10-23T23:21:48.300Z,9.81
2022-10-23T23:24:15.594Z,9.80
2022-10-23T23:26:43.074Z,9.77
2022-10-23T23:29:13.367Z,9.70
2022-10-23T23:31:41.131Z,9.59
2022-10-23T23:34:08.304Z,9.49
2022-10-23T23:36:35.677Z,9.43
2022-10-23T23:41:31.227Z,9.38
2022-10-23T23:43:59.400Z,9.36
2022-10-23T23:46:28.502Z,9.40
2022-10-23T23:48:55.551Z,9.44
2022-10-23T23:51:24.930Z,9.44
2022-10-23T23:53:52.456Z,9.45
2022-10-23T23:56:21.204Z,9.45
2022-10-23T23:58:48.398Z,9.37
